sensor_id;sensor_type;location;lat;lon;timestamp;pressure;altitude;pressure_sealevel;temperature;humidity
36242;BME280;22283;42.748;12.732;2022-12-24T00:00:33;98107.38;;;13.06;77.45
36242;BME280;22283;42.748;12.732;2022-12-24T00:05:36;98106.34;;;13.18;76.46
36242;BME280;22283;42.748;12.732;2022-12-24T00:10:37;98086.91;;;12.97;78.90
36242;BME280;22283;42.748;12.732;2022-12-24T00:15:37;98102.91;;;12.74;80.78
36242;BME280;22283;42.748;12.732;2022-12-24T00:20:38;98101.75;;;12.67;81.18
36242;BME280;22283;42.748;12.732;2022-12-24T00:25:39;98102.84;;;12.65;81.24
36242;BME280;22283;42.748;12.732;2022-12-24T00:30:41;98116.75;;;12.57;82.38
36242;BME280;22283;42.748;12.732;2022-12-24T00:35:42;98126.16;;;12.50;83.92
36242;BME280;22283;42.748;12.732;2022-12-24T00:40:42;98124.03;;;12.44;85.15
36242;BME280;22283;42.748;12.732;2022-12-24T00:45:43;98127.66;;;12.32;87.20
36242;BME280;22283;42.748;12.732;2022-12-24T00:50:44;98118.28;;;12.16;89.12
36242;BME280;22283;42.748;12.732;2022-12-24T00:55:45;98124.56;;;12.04;91.42
36242;BME280;22283;42.748;12.732;2022-12-24T01:00:45;98102.97;;;11.97;91.81
36242;BME280;22283;42.748;12.732;2022-12-24T01:05:46;98124.56;;;11.93;93.17
36242;BME280;22283;42.748;12.732;2022-12-24T01:10:50;98116.81;;;11.78;95.47
36242;BME280;22283;42.748;12.732;2022-12-24T01:15:51;98126.38;;;11.92;92.32
36242;BME280;22283;42.748;12.732;2022-12-24T01:20:56;98122.63;;;11.84;94.20
36242;BME280;22283;42.748;12.732;2022-12-24T01:26:02;98110.19;;;11.73;95.54
36242;BME280;22283;42.748;12.732;2022-12-24T01:31:12;98097.63;;;11.64;95.80
36242;BME280;22283;42.748;12.732;2022-12-24T01:36:16;98078.50;;;11.60;93.99
36242;BME280;22283;42.748;12.732;2022-12-24T01:41:20;98054.91;;;11.68;91.00
36242;BME280;22283;42.748;12.732;2022-12-24T01:46:40;98036.56;;;11.99;87.30
36242;BME280;22283;42.748;12.732;2022-12-24T01:51:45;98039.22;;;11.99;87.10
36242;BME280;22283;42.748;12.732;2022-12-24T01:56:51;98020.19;;;11.94;86.30
36242;BME280;22283;42.748;12.732;2022-12-24T02:01:53;98008.59;;;11.95;85.58
36242;BME280;22283;42.748;12.732;2022-12-24T02:06:53;97997.06;;;11.85;86.04
36242;BME280;22283;42.748;12.732;2022-12-24T02:11:54;97991.88;;;11.72;86.50
36242;BME280;22283;42.748;12.732;2022-12-24T02:17:17;98002.38;;;11.62;86.80
36242;BME280;22283;42.748;12.732;2022-12-24T02:22:55;98026.13;;;11.52;87.16
36242;BME280;22283;42.748;12.732;2022-12-24T02:28:16;98051.94;;;11.15;92.50
36242;BME280;22283;42.748;12.732;2022-12-24T02:33:34;98059.34;;;10.88;96.00
36242;BME280;22283;42.748;12.732;2022-12-24T02:38:46;98101.00;;;10.62;98.96
36242;BME280;22283;42.748;12.732;2022-12-24T02:43:50;98111.09;;;10.44;100.00
36242;BME280;22283;42.748;12.732;2022-12-24T02:48:52;98097.50;;;10.24;100.00
36242;BME280;22283;42.748;12.732;2022-12-24T02:53:53;98091.41;;;10.11;100.00
36242;BME280;22283;42.748;12.732;2022-12-24T02:59:22;98093.72;;;10.28;100.00
36242;BME280;22283;42.748;12.732;2022-12-24T03:10:03;98094.31;;;10.80;94.63
36242;BME280;22283;42.748;12.732;2022-12-24T03:15:07;98098.72;;;10.68;95.57
36242;BME280;22283;42.748;12.732;2022-12-24T03:20:10;98119.25;;;10.65;96.15
36242;BME280;22283;42.748;12.732;2022-12-24T03:25:11;98126.19;;;10.54;98.09
36242;BME280;22283;42.748;12.732;2022-12-24T03:35:32;98131.41;;;9.94;100.00
36242;BME280;22283;42.748;12.732;2022-12-24T03:40:32;98133.75;;;9.60;100.00
36242;BME280;22283;42.748;12.732;2022-12-24T03:45:33;98124.56;;;9.40;100.00
36242;BME280;22283;42.748;12.732;2022-12-24T03:50:34;98125.16;;;9.18;100.00
36242;BME280;22283;42.748;12.732;2022-12-24T03:55:34;98102.25;;;9.06;100.00
36242;BME280;22283;42.748;12.732;2022-12-24T04:00:35;98110.66;;;8.85;100.00
36242;BME280;22283;42.748;12.732;2022-12-24T04:05:36;98119.06;;;8.78;100.00
36242;BME280;22283;42.748;12.732;2022-12-24T04:10:36;98096.75;;;8.83;100.00
36242;BME280;22283;42.748;12.732;2022-12-24T04:15:37;98094.50;;;8.77;100.00
36242;BME280;22283;42.748;12.732;2022-12-24T04:20:37;98103.66;;;8.72;100.00
36242;BME280;22283;42.748;12.732;2022-12-24T04:25:38;98079.34;;;8.54;100.00
36242;BME280;22283;42.748;12.732;2022-12-24T04:30:39;98110.28;;;8.37;100.00
36242;BME280;22283;42.748;12.732;2022-12-24T04:35:40;98160.19;;;8.41;100.00
36242;BME280;22283;42.748;12.732;2022-12-24T04:40:42;98167.16;;;8.42;100.00
36242;BME280;22283;42.748;12.732;2022-12-24T04:45:42;98176.28;;;8.36;100.00
36242;BME280;22283;42.748;12.732;2022-12-24T04:50:43;98190.13;;;8.25;100.00
36242;BME280;22283;42.748;12.732;2022-12-24T04:55:44;98208.56;;;8.11;100.00
36242;BME280;22283;42.748;12.732;2022-12-24T05:00:45;98200.69;;;7.97;100.00
36242;BME280;22283;42.748;12.732;2022-12-24T05:05:46;98194.56;;;7.96;100.00
36242;BME280;22283;42.748;12.732;2022-12-24T05:10:54;98185.06;;;7.94;100.00
36242;BME280;22283;42.748;12.732;2022-12-24T05:15:55;98186.84;;;7.79;100.00
36242;BME280;22283;42.748;12.732;2022-12-24T05:20:55;98199.34;;;7.61;100.00
36242;BME280;22283;42.748;12.732;2022-12-24T05:25:56;98203.09;;;7.57;100.00
36242;BME280;22283;42.748;12.732;2022-12-24T05:31:16;98189.91;;;7.43;100.00
36242;BME280;22283;42.748;12.732;2022-12-24T05:36:17;98183.13;;;7.38;100.00
36242;BME280;22283;42.748;12.732;2022-12-24T05:41:18;98195.72;;;7.33;100.00
36242;BME280;22283;42.748;12.732;2022-12-24T05:46:20;98204.19;;;7.38;100.00
36242;BME280;22283;42.748;12.732;2022-12-24T05:51:21;98189.50;;;7.34;100.00
36242;BME280;22283;42.748;12.732;2022-12-24T05:56:23;98190.13;;;7.24;100.00
36242;BME280;22283;42.748;12.732;2022-12-24T06:01:24;98169.28;;;7.21;100.00
36242;BME280;22283;42.748;12.732;2022-12-24T06:06:26;98174.38;;;7.08;100.00
36242;BME280;22283;42.748;12.732;2022-12-24T06:11:27;98176.78;;;6.97;100.00
36242;BME280;22283;42.748;12.732;2022-12-24T06:16:28;98170.34;;;7.02;100.00
36242;BME280;22283;42.748;12.732;2022-12-24T06:21:29;98148.84;;;7.10;100.00
36242;BME280;22283;42.748;12.732;2022-12-24T06:26:30;98137.75;;;7.05;100.00
36242;BME280;22283;42.748;12.732;2022-12-24T06:31:30;98154.13;;;7.10;100.00
36242;BME280;22283;42.748;12.732;2022-12-24T06:36:31;98190.19;;;7.08;100.00
36242;BME280;22283;42.748;12.732;2022-12-24T06:41:31;98220.59;;;6.98;100.00
36242;BME280;22283;42.748;12.732;2022-12-24T06:46:32;98192.38;;;6.85;100.00
36242;BME280;22283;42.748;12.732;2022-12-24T06:51:33;98183.53;;;6.86;100.00
36242;BME280;22283;42.748;12.732;2022-12-24T06:56:33;98177.00;;;6.94;100.00
36242;BME280;22283;42.748;12.732;2022-12-24T07:01:34;98200.19;;;7.17;100.00
36242;BME280;22283;42.748;12.732;2022-12-24T07:06:35;98190.69;;;7.14;100.00
36242;BME280;22283;42.748;12.732;2022-12-24T07:11:35;98202.03;;;7.15;100.00
36242;BME280;22283;42.748;12.732;2022-12-24T07:16:36;98176.91;;;7.25;100.00
36242;BME280;22283;42.748;12.732;2022-12-24T07:21:37;98159.72;;;7.34;100.00
36242;BME280;22283;42.748;12.732;2022-12-24T07:26:37;98171.66;;;7.39;100.00
36242;BME280;22283;42.748;12.732;2022-12-24T07:31:38;98161.97;;;7.40;100.00
36242;BME280;22283;42.748;12.732;2022-12-24T07:36:39;98159.25;;;7.56;100.00
36242;BME280;22283;42.748;12.732;2022-12-24T07:41:39;98176.28;;;7.79;100.00
36242;BME280;22283;42.748;12.732;2022-12-24T07:46:41;98197.56;;;7.90;100.00
36242;BME280;22283;42.748;12.732;2022-12-24T07:51:41;98194.00;;;8.05;100.00
36242;BME280;22283;42.748;12.732;2022-12-24T07:56:42;98180.13;;;8.30;100.00
36242;BME280;22283;42.748;12.732;2022-12-24T08:01:42;98179.53;;;8.54;100.00
36242;BME280;22283;42.748;12.732;2022-12-24T08:06:43;98199.06;;;8.78;100.00
36242;BME280;22283;42.748;12.732;2022-12-24T08:11:44;98185.13;;;9.03;100.00
36242;BME280;22283;42.748;12.732;2022-12-24T08:16:44;98212.34;;;9.31;100.00
36242;BME280;22283;42.748;12.732;2022-12-24T08:21:45;98216.81;;;9.69;100.00
36242;BME280;22283;42.748;12.732;2022-12-24T08:26:46;98229.19;;;9.94;100.00
36242;BME280;22283;42.748;12.732;2022-12-24T08:31:46;98221.47;;;10.16;100.00
36242;BME280;22283;42.748;12.732;2022-12-24T08:36:47;98228.63;;;10.52;100.00
36242;BME280;22283;42.748;12.732;2022-12-24T08:41:47;98220.72;;;10.76;100.00
36242;BME280;22283;42.748;12.732;2022-12-24T08:46:48;98237.59;;;10.99;100.00
36242;BME280;22283;42.748;12.732;2022-12-24T08:51:50;98233.13;;;11.24;100.00
36242;BME280;22283;42.748;12.732;2022-12-24T08:56:52;98245.31;;;11.26;100.00
36242;BME280;22283;42.748;12.732;2022-12-24T09:01:53;98266.78;;;11.11;100.00
36242;BME280;22283;42.748;12.732;2022-12-24T09:06:53;98269.84;;;11.04;100.00
36242;BME280;22283;42.748;12.732;2022-12-24T09:11:54;98295.41;;;10.93;100.00
36242;BME280;22283;42.748;12.732;2022-12-24T09:16:54;98299.22;;;11.01;100.00
36242;BME280;22283;42.748;12.732;2022-12-24T09:22:03;98289.66;;;11.36;100.00
36242;BME280;22283;42.748;12.732;2022-12-24T09:27:04;98312.41;;;11.62;100.00
36242;BME280;22283;42.748;12.732;2022-12-24T09:32:05;98311.00;;;11.69;100.00
36242;BME280;22283;42.748;12.732;2022-12-24T09:37:06;98312.91;;;11.67;100.00
36242;BME280;22283;42.748;12.732;2022-12-24T09:42:27;98309.06;;;11.60;100.00
36242;BME280;22283;42.748;12.732;2022-12-24T09:47:40;98312.63;;;11.59;100.00
36242;BME280;22283;42.748;12.732;2022-12-24T09:52:44;98304.34;;;11.64;100.00
36242;BME280;22283;42.748;12.732;2022-12-24T09:57:46;98300.00;;;11.87;100.00
36242;BME280;22283;42.748;12.732;2022-12-24T10:02:49;98300.78;;;12.11;100.00
36242;BME280;22283;42.748;12.732;2022-12-24T10:08:01;98296.25;;;12.36;99.58
36242;BME280;22283;42.748;12.732;2022-12-24T10:23:50;98301.91;;;12.87;94.17
36242;BME280;22283;42.748;12.732;2022-12-24T10:28:58;98324.84;;;12.88;93.43
36242;BME280;22283;42.748;12.732;2022-12-24T10:34:05;98330.75;;;13.03;91.43
36242;BME280;22283;42.748;12.732;2022-12-24T10:39:20;98332.44;;;13.15;91.57
36242;BME280;22283;42.748;12.732;2022-12-24T10:44:25;98329.06;;;13.57;89.57
36242;BME280;22283;42.748;12.732;2022-12-24T10:50:03;98323.69;;;14.00;83.42
36242;BME280;22283;42.748;12.732;2022-12-24T11:00:07;98311.03;;;14.13;80.41
36242;BME280;22283;42.748;12.732;2022-12-24T11:05:32;98316.75;;;14.30;81.04
36242;BME280;22283;42.748;12.732;2022-12-24T11:10:35;98318.19;;;14.34;81.19
36242;BME280;22283;42.748;12.732;2022-12-24T11:15:39;98316.63;;;14.31;82.75
36242;BME280;22283;42.748;12.732;2022-12-24T11:20:40;98314.44;;;14.15;79.28
36242;BME280;22283;42.748;12.732;2022-12-24T11:25:49;98311.31;;;14.10;80.12
36242;BME280;22283;42.748;12.732;2022-12-24T11:31:06;98299.13;;;14.49;78.97
36242;BME280;22283;42.748;12.732;2022-12-24T11:36:20;98281.47;;;14.89;75.69
36242;BME280;22283;42.748;12.732;2022-12-24T11:41:24;98267.19;;;14.99;75.79
36242;BME280;22283;42.748;12.732;2022-12-24T11:51:26;98266.03;;;14.83;77.63
36242;BME280;22283;42.748;12.732;2022-12-24T11:56:36;98274.16;;;14.91;78.13
36242;BME280;22283;42.748;12.732;2022-12-24T12:01:55;98265.22;;;15.02;77.80
36242;BME280;22283;42.748;12.732;2022-12-24T12:07:04;98288.53;;;15.19;79.59
36242;BME280;22283;42.748;12.732;2022-12-24T12:12:06;98278.44;;;15.13;79.43
36242;BME280;22283;42.748;12.732;2022-12-24T12:28:20;98270.47;;;14.72;84.35
36242;BME280;22283;42.748;12.732;2022-12-24T12:33:47;98273.41;;;14.48;84.52
36242;BME280;22283;42.748;12.732;2022-12-24T12:38:46;98255.72;;;14.38;85.05
36242;BME280;22283;42.748;12.732;2022-12-24T12:59:37;98263.44;;;14.71;85.21
36242;BME280;22283;42.748;12.732;2022-12-24T13:04:54;98269.16;;;14.57;87.83
36242;BME280;22283;42.748;12.732;2022-12-24T13:25:39;98285.31;;;14.65;90.03
36242;BME280;22283;42.748;12.732;2022-12-24T13:30:40;98276.59;;;14.63;90.91
36242;BME280;22283;42.748;12.732;2022-12-24T13:36:01;98268.69;;;14.52;90.61
36242;BME280;22283;42.748;12.732;2022-12-24T13:52:04;98266.75;;;14.54;96.88
36242;BME280;22283;42.748;12.732;2022-12-24T13:57:26;98265.50;;;14.58;98.09
36242;BME280;22283;42.748;12.732;2022-12-24T14:02:33;98255.28;;;14.63;98.66
36242;BME280;22283;42.748;12.732;2022-12-24T14:07:35;98251.56;;;14.75;97.56
36242;BME280;22283;42.748;12.732;2022-12-24T14:12:54;98248.06;;;14.85;96.97
36242;BME280;22283;42.748;12.732;2022-12-24T14:17:55;98242.22;;;14.91;96.74
36242;BME280;22283;42.748;12.732;2022-12-24T14:22:56;98245.88;;;14.99;96.09
36242;BME280;22283;42.748;12.732;2022-12-24T14:28:05;98261.00;;;14.99;96.03
36242;BME280;22283;42.748;12.732;2022-12-24T14:33:29;98261.94;;;14.79;96.98
36242;BME280;22283;42.748;12.732;2022-12-24T14:38:29;98262.53;;;14.51;98.92
36242;BME280;22283;42.748;12.732;2022-12-24T14:49:10;98252.97;;;14.18;100.00
36242;BME280;22283;42.748;12.732;2022-12-24T14:54:28;98260.47;;;14.13;100.00
36242;BME280;22283;42.748;12.732;2022-12-24T14:59:39;98258.03;;;14.00;100.00
36242;BME280;22283;42.748;12.732;2022-12-24T15:04:41;98254.94;;;13.95;100.00
36242;BME280;22283;42.748;12.732;2022-12-24T15:09:41;98255.03;;;13.73;100.00
36242;BME280;22283;42.748;12.732;2022-12-24T15:14:44;98256.75;;;13.42;100.00
36242;BME280;22283;42.748;12.732;2022-12-24T15:19:48;98259.72;;;13.27;100.00
36242;BME280;22283;42.748;12.732;2022-12-24T15:24:52;98273.53;;;12.99;100.00
36242;BME280;22283;42.748;12.732;2022-12-24T15:29:57;98278.41;;;12.71;100.00
36242;BME280;22283;42.748;12.732;2022-12-24T15:34:57;98284.91;;;12.56;100.00
36242;BME280;22283;42.748;12.732;2022-12-24T15:40:03;98304.22;;;12.36;100.00
36242;BME280;22283;42.748;12.732;2022-12-24T15:45:12;98313.38;;;12.32;100.00
36242;BME280;22283;42.748;12.732;2022-12-24T15:50:28;98309.03;;;12.42;100.00
36242;BME280;22283;42.748;12.732;2022-12-24T15:55:34;98319.41;;;12.45;100.00
36242;BME280;22283;42.748;12.732;2022-12-24T16:00:35;98322.53;;;12.39;100.00
36242;BME280;22283;42.748;12.732;2022-12-24T16:05:38;98324.72;;;12.45;100.00
36242;BME280;22283;42.748;12.732;2022-12-24T16:10:41;98340.47;;;12.35;100.00
36242;BME280;22283;42.748;12.732;2022-12-24T16:15:50;98340.84;;;12.30;100.00
36242;BME280;22283;42.748;12.732;2022-12-24T16:20:54;98342.97;;;12.14;100.00
36242;BME280;22283;42.748;12.732;2022-12-24T16:25:57;98348.72;;;11.97;100.00
36242;BME280;22283;42.748;12.732;2022-12-24T16:30:57;98356.94;;;11.81;100.00
36242;BME280;22283;42.748;12.732;2022-12-24T16:35:58;98348.38;;;11.77;100.00
36242;BME280;22283;42.748;12.732;2022-12-24T16:40:59;98366.09;;;11.77;100.00
36242;BME280;22283;42.748;12.732;2022-12-24T16:46:05;98374.41;;;11.72;100.00
36242;BME280;22283;42.748;12.732;2022-12-24T16:51:06;98373.16;;;11.65;100.00
36242;BME280;22283;42.748;12.732;2022-12-24T16:56:07;98377.06;;;11.60;100.00
36242;BME280;22283;42.748;12.732;2022-12-24T17:01:07;98363.81;;;11.60;100.00
36242;BME280;22283;42.748;12.732;2022-12-24T17:06:08;98368.06;;;11.62;100.00
36242;BME280;22283;42.748;12.732;2022-12-24T17:11:09;98384.66;;;11.53;100.00
36242;BME280;22283;42.748;12.732;2022-12-24T17:16:10;98382.34;;;11.48;100.00
36242;BME280;22283;42.748;12.732;2022-12-24T17:21:10;98385.09;;;11.47;100.00
36242;BME280;22283;42.748;12.732;2022-12-24T17:26:13;98395.25;;;11.53;100.00
36242;BME280;22283;42.748;12.732;2022-12-24T17:31:15;98400.09;;;11.59;100.00
36242;BME280;22283;42.748;12.732;2022-12-24T17:36:17;98389.19;;;11.75;100.00
36242;BME280;22283;42.748;12.732;2022-12-24T17:41:19;98391.75;;;11.76;100.00
36242;BME280;22283;42.748;12.732;2022-12-24T17:46:21;98395.53;;;11.61;100.00
36242;BME280;22283;42.748;12.732;2022-12-24T17:51:22;98409.00;;;11.58;100.00
36242;BME280;22283;42.748;12.732;2022-12-24T17:56:23;98404.59;;;11.46;100.00
36242;BME280;22283;42.748;12.732;2022-12-24T18:01:25;98406.19;;;11.36;100.00
36242;BME280;22283;42.748;12.732;2022-12-24T18:06:29;98407.63;;;11.28;100.00
36242;BME280;22283;42.748;12.732;2022-12-24T18:11:33;98412.28;;;11.12;100.00
36242;BME280;22283;42.748;12.732;2022-12-24T18:16:36;98410.19;;;11.04;100.00
36242;BME280;22283;42.748;12.732;2022-12-24T18:21:38;98415.16;;;10.96;100.00
36242;BME280;22283;42.748;12.732;2022-12-24T18:26:39;98401.09;;;10.96;100.00
36242;BME280;22283;42.748;12.732;2022-12-24T18:31:40;98410.84;;;10.95;100.00
36242;BME280;22283;42.748;12.732;2022-12-24T18:36:40;98413.19;;;10.74;100.00
36242;BME280;22283;42.748;12.732;2022-12-24T18:41:41;98419.13;;;10.65;100.00
36242;BME280;22283;42.748;12.732;2022-12-24T18:46:42;98423.34;;;10.55;100.00
36242;BME280;22283;42.748;12.732;2022-12-24T18:51:43;98435.94;;;10.51;100.00
36242;BME280;22283;42.748;12.732;2022-12-24T18:56:43;98439.00;;;10.45;100.00
36242;BME280;22283;42.748;12.732;2022-12-24T19:01:44;98426.38;;;10.49;100.00
36242;BME280;22283;42.748;12.732;2022-12-24T19:06:44;98439.63;;;10.49;100.00
36242;BME280;22283;42.748;12.732;2022-12-24T19:11:45;98433.06;;;10.42;100.00
36242;BME280;22283;42.748;12.732;2022-12-24T19:16:46;98428.63;;;10.55;100.00
36242;BME280;22283;42.748;12.732;2022-12-24T19:21:46;98440.91;;;10.69;100.00
36242;BME280;22283;42.748;12.732;2022-12-24T19:26:47;98433.72;;;10.71;100.00
36242;BME280;22283;42.748;12.732;2022-12-24T19:31:48;98449.81;;;10.55;100.00
36242;BME280;22283;42.748;12.732;2022-12-24T19:36:50;98465.63;;;10.29;100.00
36242;BME280;22283;42.748;12.732;2022-12-24T19:41:50;98457.59;;;10.04;100.00
36242;BME280;22283;42.748;12.732;2022-12-24T19:46:51;98460.66;;;9.98;100.00
36242;BME280;22283;42.748;12.732;2022-12-24T19:51:52;98468.28;;;10.02;100.00
36242;BME280;22283;42.748;12.732;2022-12-24T19:56:54;98456.63;;;10.05;100.00
36242;BME280;22283;42.748;12.732;2022-12-24T20:01:54;98460.25;;;10.17;100.00
36242;BME280;22283;42.748;12.732;2022-12-24T20:06:55;98477.63;;;10.21;100.00
36242;BME280;22283;42.748;12.732;2022-12-24T20:11:55;98463.00;;;10.15;100.00
36242;BME280;22283;42.748;12.732;2022-12-24T20:16:56;98466.69;;;10.13;100.00
36242;BME280;22283;42.748;12.732;2022-12-24T20:21:57;98480.22;;;10.08;100.00
36242;BME280;22283;42.748;12.732;2022-12-24T20:26:57;98474.59;;;10.00;100.00
36242;BME280;22283;42.748;12.732;2022-12-24T20:31:58;98493.44;;;10.08;100.00
36242;BME280;22283;42.748;12.732;2022-12-24T20:36:59;98496.69;;;9.99;100.00
36242;BME280;22283;42.748;12.732;2022-12-24T20:41:59;98492.75;;;9.92;100.00
36242;BME280;22283;42.748;12.732;2022-12-24T20:47:00;98503.50;;;9.89;100.00
36242;BME280;22283;42.748;12.732;2022-12-24T20:52:01;98498.41;;;9.85;100.00
36242;BME280;22283;42.748;12.732;2022-12-24T20:57:02;98505.59;;;9.83;100.00
36242;BME280;22283;42.748;12.732;2022-12-24T21:02:02;98494.50;;;9.78;100.00
36242;BME280;22283;42.748;12.732;2022-12-24T21:07:03;98515.16;;;9.72;100.00
36242;BME280;22283;42.748;12.732;2022-12-24T21:12:04;98516.41;;;9.52;100.00
36242;BME280;22283;42.748;12.732;2022-12-24T21:17:24;98515.09;;;9.45;100.00
36242;BME280;22283;42.748;12.732;2022-12-24T21:22:25;98522.84;;;9.48;100.00
36242;BME280;22283;42.748;12.732;2022-12-24T21:27:28;98538.88;;;9.45;100.00
36242;BME280;22283;42.748;12.732;2022-12-24T21:32:28;98545.78;;;9.47;100.00
36242;BME280;22283;42.748;12.732;2022-12-24T21:37:29;98546.81;;;9.59;100.00
36242;BME280;22283;42.748;12.732;2022-12-24T21:42:33;98559.25;;;9.57;100.00
36242;BME280;22283;42.748;12.732;2022-12-24T21:47:35;98547.34;;;9.64;100.00
36242;BME280;22283;42.748;12.732;2022-12-24T21:52:37;98542.97;;;9.77;100.00
36242;BME280;22283;42.748;12.732;2022-12-24T21:57:38;98566.88;;;9.76;100.00
36242;BME280;22283;42.748;12.732;2022-12-24T22:02:55;98553.78;;;9.60;100.00
36242;BME280;22283;42.748;12.732;2022-12-24T22:07:56;98564.44;;;9.58;100.00
36242;BME280;22283;42.748;12.732;2022-12-24T22:13:16;98570.75;;;9.70;100.00
36242;BME280;22283;42.748;12.732;2022-12-24T22:18:19;98571.91;;;9.66;100.00
36242;BME280;22283;42.748;12.732;2022-12-24T22:23:20;98579.81;;;9.52;100.00
36242;BME280;22283;42.748;12.732;2022-12-24T22:28:21;98577.00;;;9.55;100.00
36242;BME280;22283;42.748;12.732;2022-12-24T22:33:21;98571.50;;;9.87;100.00
36242;BME280;22283;42.748;12.732;2022-12-24T22:38:22;98567.91;;;9.73;100.00
36242;BME280;22283;42.748;12.732;2022-12-24T22:43:22;98562.06;;;9.54;100.00
36242;BME280;22283;42.748;12.732;2022-12-24T22:48:23;98571.78;;;9.53;100.00
36242;BME280;22283;42.748;12.732;2022-12-24T22:53:24;98580.78;;;9.51;100.00
36242;BME280;22283;42.748;12.732;2022-12-24T22:58:25;98587.09;;;9.63;100.00
36242;BME280;22283;42.748;12.732;2022-12-24T23:03:27;98581.69;;;9.78;100.00
36242;BME280;22283;42.748;12.732;2022-12-24T23:08:31;98590.19;;;9.83;100.00
36242;BME280;22283;42.748;12.732;2022-12-24T23:13:32;98602.91;;;9.91;100.00
36242;BME280;22283;42.748;12.732;2022-12-24T23:18:53;98602.97;;;9.90;100.00
36242;BME280;22283;42.748;12.732;2022-12-24T23:23:56;98595.44;;;9.98;100.00
36242;BME280;22283;42.748;12.732;2022-12-24T23:28:57;98589.75;;;10.18;100.00
36242;BME280;22283;42.748;12.732;2022-12-24T23:33:57;98592.78;;;10.26;100.00
36242;BME280;22283;42.748;12.732;2022-12-24T23:38:58;98575.84;;;10.29;100.00
36242;BME280;22283;42.748;12.732;2022-12-24T23:43:58;98592.22;;;10.48;100.00
36242;BME280;22283;42.748;12.732;2022-12-24T23:48:59;98600.72;;;10.53;100.00
36242;BME280;22283;42.748;12.732;2022-12-24T23:54:00;98592.84;;;10.52;100.00
36242;BME280;22283;42.748;12.732;2022-12-24T23:59:01;98587.06;;;10.32;100.00
